createdAt,value
2022-12-26T00:01:47.370Z,10.78
2022-12-26T00:05:12.602Z,10.77
2022-12-26T00:08:37.867Z,10.78
2022-12-26T00:12:03.125Z,10.8
2022-12-26T00:15:28.431Z,10.8
2022-12-26T00:18:53.687Z,10.81
2022-12-26T00:22:18.935Z,10.82
2022-12-26T00:25:44.184Z,10.8
2022-12-26T00:29:09.445Z,10.8
2022-12-26T00:32:34.748Z,10.79
2022-12-26T00:35:59.939Z,10.83
2022-12-26T00:39:25.214Z,10.84
2022-12-26T00:42:50.433Z,10.85
2022-12-26T00:46:15.781Z,10.86
2022-12-26T00:50:11.206Z,10.9
2022-12-26T00:53:06.256Z,10.93
2022-12-26T00:56:31.489Z,10.97
2022-12-26T00:59:56.774Z,11.02
2022-12-26T01:03:22.072Z,11.05
2022-12-26T01:06:47.309Z,11.09
2022-12-26T01:10:12.511Z,11.13
2022-12-26T01:13:37.764Z,11.15
2022-12-26T01:17:03.051Z,11.15
2022-12-26T01:20:28.314Z,11.16
2022-12-26T01:23:53.583Z,11.15
2022-12-26T01:27:18.868Z,11.17
2022-12-26T01:30:44.122Z,11.22
2022-12-26T01:34:09.383Z,11.21
2022-12-26T01:37:34.600Z,11.22
2022-12-26T01:40:59.878Z,11.23
2022-12-26T01:44:25.101Z,11.29
2022-12-26T01:47:50.361Z,11.35
2022-12-26T01:51:15.615Z,11.37
2022-12-26T01:54:42.909Z,11.35
2022-12-26T01:58:06.214Z,11.36
2022-12-26T02:01:31.735Z,11.38
2022-12-26T02:04:56.831Z,11.37
2022-12-26T02:08:22.136Z,11.37
2022-12-26T02:11:47.444Z,11.37
2022-12-26T02:15:12.836Z,11.37
2022-12-26T02:18:38.042Z,11.35
2022-12-26T02:22:03.288Z,11.34
2022-12-26T02:25:28.567Z,11.33
2022-12-26T02:28:53.874Z,11.34
2022-12-26T02:32:19.331Z,11.32
2022-12-26T02:35:44.403Z,11.32
2022-12-26T02:39:43.013Z,11.29
2022-12-26T02:42:34.991Z,11.3
2022-12-26T02:46:00.314Z,11.3
2022-12-26T02:49:25.523Z,11.32
2022-12-26T02:52:50.724Z,11.32
2022-12-26T02:56:15.990Z,11.31
2022-12-26T02:59:54.675Z,11.34
2022-12-26T03:03:06.579Z,11.34
2022-12-26T03:06:31.821Z,11.34
2022-12-26T03:09:57.094Z,11.34
2022-12-26T03:13:22.316Z,11.34
2022-12-26T03:16:47.667Z,11.32
2022-12-26T03:20:12.918Z,11.31
2022-12-26T03:23:38.196Z,11.32
2022-12-26T03:27:03.395Z,11.31
2022-12-26T03:30:28.753Z,11.3
2022-12-26T03:33:54.005Z,11.3
2022-12-26T03:37:19.231Z,11.3
2022-12-26T03:40:44.568Z,11.34
2022-12-26T03:44:09.809Z,11.34
2022-12-26T03:47:35.070Z,11.37
2022-12-26T03:51:00.369Z,11.38
2022-12-26T03:54:25.717Z,11.39
2022-12-26T03:57:51.035Z,11.4
2022-12-26T04:01:16.453Z,11.4
2022-12-26T04:04:41.583Z,11.43
2022-12-26T04:08:06.892Z,11.47
2022-12-26T04:11:32.184Z,11.53
2022-12-26T04:14:57.466Z,11.55
2022-12-26T04:18:22.728Z,11.58
2022-12-26T04:21:47.994Z,11.58
2022-12-26T04:25:13.304Z,11.59
2022-12-26T04:28:38.573Z,11.56
2022-12-26T04:32:03.901Z,11.55
2022-12-26T04:35:29.170Z,11.54
2022-12-26T04:38:54.463Z,11.55
2022-12-26T04:42:19.729Z,11.56
2022-12-26T04:45:44.981Z,11.58
2022-12-26T04:49:10.281Z,11.58
2022-12-26T04:52:35.474Z,11.59
2022-12-26T04:56:00.730Z,11.58
2022-12-26T04:59:25.968Z,11.58
2022-12-26T05:02:51.355Z,11.55
2022-12-26T05:06:16.565Z,11.56
2022-12-26T05:09:41.841Z,11.57
2022-12-26T05:13:07.080Z,11.59
2022-12-26T05:16:32.343Z,11.62
2022-12-26T05:19:57.611Z,11.63
2022-12-26T05:23:22.950Z,11.65
2022-12-26T05:26:48.155Z,11.68
2022-12-26T05:30:13.431Z,11.68
2022-12-26T05:33:38.737Z,11.7
2022-12-26T05:37:03.990Z,11.72
2022-12-26T05:40:29.316Z,11.68
2022-12-26T05:43:54.543Z,11.64
2022-12-26T05:47:19.792Z,11.63
2022-12-26T05:50:45.045Z,11.63
2022-12-26T05:54:10.291Z,11.63
2022-12-26T05:57:35.569Z,11.63
2022-12-26T06:01:00.818Z,11.64
2022-12-26T06:04:26.097Z,11.67
2022-12-26T06:07:51.373Z,11.69
2022-12-26T06:11:16.666Z,11.73
2022-12-26T06:14:41.955Z,11.73
2022-12-26T06:18:07.200Z,11.76
2022-12-26T06:21:32.463Z,11.77
2022-12-26T06:24:57.731Z,11.82
2022-12-26T06:28:23.040Z,11.86
2022-12-26T06:31:48.408Z,11.88
2022-12-26T06:35:13.605Z,11.89
2022-12-26T06:38:38.838Z,11.92
2022-12-26T06:42:04.098Z,11.93
2022-12-26T06:45:29.370Z,11.94
2022-12-26T06:48:54.729Z,11.95
2022-12-26T06:52:19.988Z,11.92
2022-12-26T06:55:45.314Z,11.92
2022-12-26T06:59:10.627Z,11.91
2022-12-26T07:02:35.999Z,11.89
2022-12-26T07:06:01.299Z,11.89
2022-12-26T07:09:31.559Z,11.88
2022-12-26T07:12:51.824Z,11.9
2022-12-26T07:16:17.175Z,11.91
2022-12-26T07:19:42.366Z,11.91
2022-12-26T07:23:07.658Z,11.91
2022-12-26T07:26:32.954Z,11.9
2022-12-26T07:29:58.226Z,11.87
2022-12-26T07:33:23.491Z,11.88
2022-12-26T07:36:48.833Z,11.89
2022-12-26T07:40:14.149Z,11.89
2022-12-26T07:43:39.408Z,11.9
2022-12-26T07:47:04.752Z,11.92
2022-12-26T07:50:30.159Z,11.92
2022-12-26T07:53:55.574Z,11.94
2022-12-26T07:57:47.837Z,11.99
2022-12-26T08:00:46.289Z,12
2022-12-26T08:04:11.538Z,12.02
2022-12-26T08:07:36.759Z,12.04
2022-12-26T08:11:02.196Z,12.07
2022-12-26T08:14:27.410Z,12.1
2022-12-26T08:17:52.749Z,12.11
2022-12-26T08:21:17.999Z,12.12
2022-12-26T08:24:43.222Z,12.12
2022-12-26T08:28:08.477Z,12.11
2022-12-26T08:31:33.831Z,12.1
2022-12-26T08:34:59.173Z,12.17
2022-12-26T08:38:27.238Z,12.21
2022-12-26T08:41:49.801Z,12.29
2022-12-26T08:45:15.796Z,12.32
2022-12-26T08:48:41.171Z,12.34
2022-12-26T08:52:06.519Z,12.36
2022-12-26T08:55:31.960Z,12.38
2022-12-26T08:58:57.252Z,12.38
2022-12-26T09:02:22.839Z,12.37
2022-12-26T09:05:47.913Z,12.34
2022-12-26T09:09:13.193Z,12.28
2022-12-26T09:12:38.477Z,12.23
2022-12-26T09:16:03.767Z,12.21
2022-12-26T09:19:29.087Z,12.2
2022-12-26T09:22:54.402Z,12.27
2022-12-26T09:26:19.691Z,12.34
2022-12-26T09:29:45.052Z,12.3
2022-12-26T09:33:10.335Z,12.26
2022-12-26T09:36:35.666Z,12.24
2022-12-26T09:40:01.013Z,12.25
2022-12-26T09:43:26.255Z,12.24
2022-12-26T09:46:51.480Z,12.2
2022-12-26T09:50:16.711Z,12.18
2022-12-26T09:53:41.899Z,12.13
2022-12-26T09:57:11.348Z,12.09
2022-12-26T10:00:32.320Z,12.05
2022-12-26T10:03:57.533Z,12.11
2022-12-26T10:07:22.736Z,12.19
2022-12-26T10:10:47.967Z,12.25
2022-12-26T10:14:19.621Z,12.29
2022-12-26T10:17:38.368Z,12.3
2022-12-26T10:21:03.542Z,12.29
2022-12-26T10:24:28.803Z,12.29
2022-12-26T10:27:54.002Z,12.25
2022-12-26T10:31:19.274Z,12.26
2022-12-26T10:34:44.409Z,12.28
2022-12-26T10:38:09.614Z,12.25
2022-12-26T10:41:34.853Z,12.24
2022-12-26T10:45:00.108Z,12.22
2022-12-26T10:48:25.333Z,12.22
2022-12-26T10:51:50.524Z,12.23
2022-12-26T10:55:27.726Z,12.25
2022-12-26T10:58:40.966Z,12.27
2022-12-26T11:02:07.239Z,12.22
2022-12-26T11:08:56.585Z,12.17
2022-12-26T11:12:21.821Z,12.17
2022-12-26T11:15:47.045Z,12.12
2022-12-26T11:19:12.196Z,12.08
2022-12-26T11:22:37.388Z,12.05
2022-12-26T11:26:02.585Z,12.06
2022-12-26T11:29:27.753Z,12.08
2022-12-26T11:32:52.945Z,12.05
2022-12-26T11:36:18.182Z,12
2022-12-26T11:39:43.363Z,11.94
2022-12-26T11:43:08.503Z,11.85
2022-12-26T11:46:33.729Z,11.78
2022-12-26T11:49:58.888Z,11.8
2022-12-26T11:53:24.085Z,11.78
2022-12-26T11:56:49.270Z,11.79
2022-12-26T12:00:14.506Z,11.86
2022-12-26T12:03:43.805Z,11.82
2022-12-26T12:07:04.799Z,11.84
2022-12-26T12:10:30.011Z,11.92
2022-12-26T12:13:55.222Z,11.94
2022-12-26T12:17:20.384Z,11.89
2022-12-26T12:20:50.299Z,11.8
2022-12-26T12:24:10.778Z,11.76
2022-12-26T12:27:35.964Z,11.79
2022-12-26T12:31:01.247Z,11.77
2022-12-26T12:34:26.334Z,11.73
2022-12-26T12:37:51.515Z,11.76
2022-12-26T12:41:16.665Z,11.8
2022-12-26T12:44:41.876Z,11.84
2022-12-26T12:48:07.182Z,11.86
2022-12-26T12:51:32.250Z,11.87
2022-12-26T12:54:57.441Z,11.91
2022-12-26T12:58:22.611Z,11.91
2022-12-26T13:01:47.905Z,11.94
2022-12-26T13:05:12.999Z,12
2022-12-26T13:08:38.166Z,11.99
2022-12-26T13:12:03.347Z,11.99
2022-12-26T13:15:28.525Z,11.94
2022-12-26T13:18:53.671Z,11.94
2022-12-26T13:22:18.879Z,11.98
2022-12-26T13:25:44.044Z,12.03
2022-12-26T13:29:09.226Z,12.02
2022-12-26T13:32:34.399Z,11.98
2022-12-26T13:35:59.592Z,11.93
2022-12-26T13:39:24.827Z,11.91
2022-12-26T13:42:49.987Z,11.91
2022-12-26T13:46:15.177Z,11.89
2022-12-26T13:49:40.351Z,11.92
2022-12-26T13:53:05.508Z,11.97
2022-12-26T13:56:30.696Z,11.97
2022-12-26T13:59:55.858Z,11.99
2022-12-26T14:03:21.647Z,11.98
2022-12-26T14:06:46.266Z,11.96
2022-12-26T14:10:11.456Z,11.96
2022-12-26T14:13:36.635Z,11.94
2022-12-26T14:17:02.443Z,11.89
2022-12-26T14:20:27.576Z,11.86
2022-12-26T14:23:52.754Z,11.88
2022-12-26T14:27:17.910Z,11.87
2022-12-26T15:03:11.589Z,9.4
2022-12-26T15:07:18.548Z,10.44
2022-12-26T15:10:38.875Z,10.71
2022-12-26T15:14:04.092Z,10.91
2022-12-26T15:17:29.973Z,11.05
2022-12-26T15:20:55.355Z,11.19
2022-12-26T15:24:20.652Z,11.28
2022-12-26T15:27:45.934Z,11.35
2022-12-26T15:31:11.334Z,11.36
2022-12-26T15:34:36.515Z,11.4
2022-12-26T15:38:01.833Z,11.45
2022-12-26T15:41:27.089Z,11.49
2022-12-26T15:44:52.401Z,11.52
2022-12-26T15:48:17.677Z,11.56
2022-12-26T15:51:42.938Z,11.51
2022-12-26T15:55:08.188Z,11.52
2022-12-26T15:58:33.355Z,11.55
2022-12-26T16:01:58.816Z,11.54
2022-12-26T16:05:24.265Z,11.52
2022-12-26T16:08:49.558Z,11.52
2022-12-26T16:12:15.267Z,11.49
2022-12-26T16:15:40.831Z,11.46
2022-12-26T16:19:06.047Z,11.24
2022-12-26T16:22:31.281Z,10.92
2022-12-26T16:25:56.562Z,10.65
2022-12-26T16:29:21.963Z,10.52
2022-12-26T16:32:47.154Z,10.42
2022-12-26T16:36:12.629Z,10.32
2022-12-26T16:39:37.806Z,10.27
2022-12-26T16:43:02.980Z,10.22
2022-12-26T16:46:28.191Z,10.18
2022-12-26T16:49:53.300Z,10.13
2022-12-26T16:53:18.466Z,10.11
2022-12-26T16:56:44.963Z,10.14
2022-12-26T17:00:10.584Z,10.14
2022-12-26T17:03:36.157Z,10.16
2022-12-26T17:07:01.549Z,10.19
2022-12-26T17:10:26.775Z,10.22
2022-12-26T17:13:52.403Z,10.29
2022-12-26T17:17:17.567Z,10.29
2022-12-26T17:20:42.766Z,10.27
2022-12-26T17:24:07.966Z,10.22
2022-12-26T17:27:33.165Z,10.24
2022-12-26T17:30:58.395Z,10.25
2022-12-26T17:34:23.562Z,10.29
2022-12-26T17:37:48.845Z,10.25
2022-12-26T17:41:14.002Z,10.24
2022-12-26T17:44:39.218Z,10.22
2022-12-26T17:48:04.478Z,10.16
2022-12-26T17:51:29.945Z,10.15
2022-12-26T17:54:55.190Z,10.19
2022-12-26T17:58:20.339Z,10.24
2022-12-26T18:01:45.666Z,10.25
2022-12-26T18:05:10.790Z,10.25
2022-12-26T18:08:36.161Z,10.24
2022-12-26T18:12:01.728Z,10.24
2022-12-26T18:15:27.025Z,10.3
2022-12-26T18:18:52.290Z,10.38
2022-12-26T18:22:17.556Z,10.4
2022-12-26T18:25:42.792Z,10.35
2022-12-26T18:29:07.995Z,10.36
2022-12-26T18:32:33.134Z,10.4
2022-12-26T18:36:00.799Z,10.45
2022-12-26T18:39:23.586Z,10.51
2022-12-26T18:42:48.774Z,10.56
2022-12-26T18:46:14.014Z,10.56
2022-12-26T18:49:39.138Z,10.5
2022-12-26T18:53:04.312Z,10.47
2022-12-26T18:56:29.509Z,10.46
2022-12-26T18:59:54.708Z,10.53
2022-12-26T19:03:19.956Z,10.58
2022-12-26T19:06:45.084Z,10.55
2022-12-26T19:10:10.276Z,10.57
2022-12-26T19:13:35.432Z,10.62
2022-12-26T19:17:00.609Z,10.6
2022-12-26T19:20:25.826Z,10.56
2022-12-26T19:23:51.024Z,10.44
2022-12-26T19:27:16.269Z,10.24
2022-12-26T19:30:41.425Z,10.15
2022-12-26T19:34:06.603Z,10.02
2022-12-26T19:37:31.791Z,9.92
2022-12-26T19:40:56.947Z,9.86
2022-12-26T19:44:22.159Z,9.89
2022-12-26T19:47:47.329Z,9.93
2022-12-26T19:51:12.513Z,9.99
2022-12-26T19:54:37.729Z,10.06
2022-12-26T19:58:02.884Z,10.15
2022-12-26T20:01:28.165Z,10.21
2022-12-26T20:04:53.269Z,10.21
2022-12-26T20:08:18.471Z,10.15
2022-12-26T20:11:43.666Z,10.11
2022-12-26T20:15:08.825Z,10.08
2022-12-26T20:18:34.012Z,10
2022-12-26T20:21:59.209Z,9.94
2022-12-26T20:25:24.393Z,9.93
2022-12-26T20:28:49.594Z,9.92
2022-12-26T20:32:14.742Z,9.95
2022-12-26T20:35:39.925Z,9.87
2022-12-26T20:39:05.099Z,9.82
2022-12-26T20:42:30.273Z,9.81
2022-12-26T20:45:55.575Z,9.82
2022-12-26T20:49:20.665Z,9.86
2022-12-26T20:52:45.833Z,9.89
2022-12-26T20:56:11.028Z,9.86
2022-12-26T20:59:36.193Z,9.8
2022-12-26T21:03:01.467Z,9.76
2022-12-26T21:06:26.560Z,9.75
2022-12-26T21:09:51.744Z,9.75
2022-12-26T21:13:16.906Z,9.74
2022-12-26T21:16:42.207Z,9.69
2022-12-26T21:20:07.333Z,9.72
2022-12-26T21:23:32.515Z,9.76
2022-12-26T21:26:57.700Z,9.8
2022-12-26T21:30:22.874Z,9.82
2022-12-26T21:33:48.035Z,9.86
2022-12-26T21:37:13.262Z,9.86
2022-12-26T21:40:38.451Z,9.81
2022-12-26T21:44:03.632Z,9.81
2022-12-26T21:47:28.835Z,9.81
2022-12-26T21:50:54.000Z,9.8
2022-12-26T21:54:19.192Z,9.77
2022-12-26T21:57:44.357Z,9.78
2022-12-26T22:01:09.627Z,9.81
2022-12-26T22:04:34.723Z,9.83
2022-12-26T22:07:59.920Z,9.77
2022-12-26T22:11:25.136Z,9.72
2022-12-26T22:14:50.308Z,9.72
2022-12-26T22:18:15.499Z,9.74
2022-12-26T22:21:40.699Z,9.72
2022-12-26T22:25:05.955Z,9.64
2022-12-26T22:28:31.137Z,9.58
2022-12-26T22:31:56.302Z,9.57
2022-12-26T22:35:21.513Z,9.57
2022-12-26T22:38:46.689Z,9.55
2022-12-26T22:42:11.872Z,9.53
2022-12-26T22:45:37.059Z,9.5
2022-12-26T22:49:02.210Z,9.42
2022-12-26T22:52:27.395Z,9.38
2022-12-26T22:55:52.582Z,9.22
2022-12-26T22:59:34.068Z,9.01
2022-12-26T23:02:43.233Z,8.81
2022-12-26T23:06:08.327Z,8.68
2022-12-26T23:09:33.502Z,8.57
2022-12-26T23:12:58.669Z,8.51
2022-12-26T23:16:23.921Z,8.43
2022-12-26T23:19:49.088Z,8.34
2022-12-26T23:23:14.245Z,8.25
2022-12-26T23:26:39.414Z,8.22
2022-12-26T23:30:04.603Z,8.16
2022-12-26T23:33:29.764Z,8.08
2022-12-26T23:36:54.983Z,8.06
2022-12-26T23:40:20.171Z,8.09
2022-12-26T23:43:45.357Z,8.1
2022-12-26T23:47:10.586Z,8.1
2022-12-26T23:50:35.737Z,8
2022-12-26T23:54:00.933Z,7.91
2022-12-26T23:57:26.123Z,7.77
